1919 NOT_NAMED (1919181N11142)


IBTrACS version v04r00. Visit IBTrACS website for data access.
Please direct all questions to the IBTrACS Q and A forum

Storm track - Intensity - Wind Radii - Intensity Data - Source Data - All data

Summary Information

Storm ID 1919181N11142
Start Jun 29 22Z
Landfall Jul 4 15Z
End Jul 4 22Z
ATCF IDs
Track status Best track data.

Storm track plot

Map of storm track

Intensity plots

No Intensity information for this storm


Radial wind information

No radial wind information for this storm


Position and Intensity Table

BASIN ISO_TIME_________ NATURE LAT LON
degrees north degrees east
WP 1919-06-29 22:00:00 NR 10.60 141.50
WP 1919-06-30 00:00:00 NR 10.57 141.00
WP 03:00:00 NR 10.55 140.25
WP 06:00:00 NR 10.54 139.48
WP 09:00:00 NR 10.58 138.68
WP 10:00:00 NR 10.60 138.40
WP 12:00:00 NR 10.67 137.83
WP 15:00:00 NR 10.81 136.95
WP 18:00:00 NR 11.00 136.09
WP 21:00:00 NR 11.22 135.26
WP 22:00:00 NR 11.30 135.00
WP 1919-07-01 00:00:00 NR 11.45 134.52
WP 03:00:00 NR 11.71 133.84
WP 06:00:00 NR 11.99 133.21
WP 09:00:00 NR 12.29 132.60
WP 10:00:00 NR 12.40 132.40
WP 12:00:00 NR 12.59 131.99
WP 15:00:00 NR 12.91 131.40
WP 18:00:00 NR 13.25 130.80
WP 21:00:00 NR 13.65 130.20
WP 22:00:00 NR 13.80 130.00
WP 1919-07-02 00:00:00 NR 14.11 129.57
WP 03:00:00 NR 14.62 128.92
WP 06:00:00 NR 15.18 128.26
WP 09:00:00 NR 15.79 127.61
WP 10:00:00 NR 16.00 127.40
WP 12:00:00 NR 16.45 126.96
WP 15:00:00 NR 17.15 126.32
WP 18:00:00 NR 17.85 125.71
WP 21:00:00 NR 18.50 125.16
WP 22:00:00 NR 18.70 125.00
WP 1919-07-03 00:00:00 NR 19.05 124.72
WP 03:00:00 NR 19.51 124.35
WP 06:00:00 NR 19.92 124.03
WP 09:00:00 NR 20.28 123.71
WP 10:00:00 NR 20.40 123.60
WP 12:00:00 NR 20.64 123.38
WP 15:00:00 NR 20.98 123.03
WP 18:00:00 NR 21.30 122.62
WP 21:00:00 NR 21.60 122.10
WP 22:00:00 NR 21.70 121.90
WP 1919-07-04 00:00:00 NR 21.85 121.40
WP 03:00:00 NR 22.06 120.54
WP 06:00:00 NR 22.31 119.61
WP 09:00:00 NR 22.65 118.69
WP 10:00:00 NR 22.80 118.40
WP 12:00:00 NR 23.15 117.85
WP 15:00:00 NR 23.79 117.09
WP 18:00:00 NR 24.53 116.39
WP 21:00:00 NR 25.33 115.72
WP 22:00:00 NR 25.60 115.50

Source Information

Agency Information
USA
TOKYO
CMA
HKO
NEWDELHI
REUNION
BOM
NADI
WELLINGTON
DS824
TD9636 cons_worldwide_trop_cyclone_18710101-19891231-003:Line=5873
TD9635
NEUMANN
MLC

All available IBTrACS Data

SEASON BASIN SUBBASIN ISO_TIME_________ NATURE LAT LON DIST2LAND LANDFALL IFLAG USA SSHS TD9636 LAT TD9636 LON TD9636 STAGE STORM SPEED STORM DIR
Year degrees north degrees east km km 1 degrees north degrees east kts degrees
1919 WP MM 1919-06-29 22:00:00 NR 10.60 141.50 1415 1396 __________O___ -1 10.60 141.50 2 15 267
1919 WP MM 1919-06-30 00:00:00 NR 10.57 141.00 1396 1356 __________P___ -1 10.57 141.00 2 15 267
1919 WP MM 03:00:00 NR 10.55 140.25 1356 1327 __________P___ -1 10.55 140.25 2 15 269
1919 WP MM 06:00:00 NR 10.54 139.48 1327 1311 __________P___ -1 10.54 139.48 2 16 271
1919 WP MM 09:00:00 NR 10.58 138.68 1311 1303 __________P___ -1 10.58 138.68 2 16 273
1919 WP MM 10:00:00 NR 10.60 138.40 1303 1275 __________O___ -1 10.60 138.40 2 17 276
1919 WP MM 12:00:00 NR 10.67 137.83 1275 1193 __________P___ -1 10.67 137.83 2 17 278
1919 WP MM 15:00:00 NR 10.81 136.95 1193 1102 __________P___ -1 10.81 136.95 2 17 281
1919 WP MM 18:00:00 NR 11.00 136.09 1102 1021 __________P___ -1 11.00 136.09 2 17 284
1919 WP MM 21:00:00 NR 11.22 135.26 1021 991 __________P___ -1 11.22 135.26 2 17 286
1919 WP MM 22:00:00 NR 11.30 135.00 991 944 __________O___ -1 11.30 135.00 2 15 288
1919 WP MM 1919-07-01 00:00:00 NR 11.45 134.52 944 876 __________P___ -1 11.45 134.52 2 15 290
1919 WP MM 03:00:00 NR 11.71 133.84 876 814 __________P___ -1 11.71 133.84 2 14 293
1919 WP MM 06:00:00 NR 11.99 133.21 814 755 __________P___ -1 11.99 133.21 2 14 296
1919 WP MM 09:00:00 NR 12.29 132.60 755 736 __________P___ -1 12.29 132.60 2 13 298
1919 WP MM 10:00:00 NR 12.40 132.40 736 698 __________O___ -1 12.40 132.40 2 13 297
1919 WP MM 12:00:00 NR 12.59 131.99 698 645 __________P___ -1 12.59 131.99 2 13 297
1919 WP MM 15:00:00 NR 12.91 131.40 645 586 __________P___ -1 12.91 131.40 2 13 300
1919 WP MM 18:00:00 NR 13.25 130.80 588 533 __________P___ -1 13.25 130.80 2 14 303
1919 WP MM 21:00:00 NR 13.65 130.20 536 519 __________P___ -1 13.65 130.20 2 14 305
1919 WP MM 22:00:00 NR 13.80 130.00 519 492 __________O___ -1 13.80 130.00 2 15 307
1919 WP MM 1919-07-02 00:00:00 NR 14.11 129.57 492 455 __________P___ -1 14.11 129.57 2 16 308
1919 WP MM 03:00:00 NR 14.62 128.92 455 440 __________P___ -1 14.62 128.92 2 17 310
1919 WP MM 06:00:00 NR 15.18 128.26 444 404 __________P___ -1 15.18 128.26 2 17 313
1919 WP MM 09:00:00 NR 15.79 127.61 404 399 __________P___ -1 15.79 127.61 2 18 315
1919 WP MM 10:00:00 NR 16.00 127.40 399 395 __________O___ -1 16.00 127.40 2 18 316
1919 WP MM 12:00:00 NR 16.45 126.96 395 395 __________P___ -1 16.45 126.96 2 19 318
1919 WP MM 15:00:00 NR 17.15 126.32 404 351 __________P___ -1 17.15 126.32 2 19 320
1919 WP MM 18:00:00 NR 17.85 125.71 354 306 __________P___ -1 17.85 125.71 2 17 321
1919 WP MM 21:00:00 NR 18.50 125.16 306 286 __________P___ -1 18.50 125.16 2 16 322
1919 WP MM 22:00:00 NR 18.70 125.00 286 261 __________O___ -1 18.70 125.00 4 14 322
1919 WP MM 1919-07-03 00:00:00 NR 19.05 124.72 261 247 __________P___ -1 19.05 124.72 4 12 323
1919 WP MM 03:00:00 NR 19.51 124.35 252 243 __________P___ -1 19.51 124.35 4 11 323
1919 WP MM 06:00:00 NR 19.92 124.03 245 245 __________P___ -1 19.92 124.03 4 10 322
1919 WP MM 09:00:00 NR 20.28 123.71 258 258 __________P___ -1 20.28 123.71 4 10 320
1919 WP MM 10:00:00 NR 20.40 123.60 261 261 __________O___ -1 20.40 123.60 4 10 319
1919 WP MM 12:00:00 NR 20.64 123.38 271 239 __________P___ -1 20.64 123.38 4 10 318
1919 WP MM 15:00:00 NR 20.98 123.03 239 188 __________P___ -1 20.98 123.03 4 10 313
1919 WP MM 18:00:00 NR 21.30 122.62 188 128 __________P___ -1 21.30 122.62 4 11 306
1919 WP MM 21:00:00 NR 21.60 122.10 128 105 __________P___ -1 21.60 122.10 4 12 301
1919 WP MM 22:00:00 NR 21.70 121.90 105 51 __________O___ -1 21.70 121.90 4 14 291
1919 WP MM 1919-07-04 00:00:00 NR 21.85 121.40 51 0 __________P___ -1 21.85 121.40 4 16 286
1919 WP MM 03:00:00 NR 22.06 120.54 20 20 __________P___ -1 22.06 120.54 4 17 286
1919 WP MM 06:00:00 NR 22.31 119.61 75 75 __________P___ -1 22.31 119.61 4 18 289
1919 WP MM 09:00:00 NR 22.65 118.69 150 129 __________P___ -1 22.65 118.69 4 18 294
1919 WP MM 10:00:00 NR 22.80 118.40 129 70 __________O___ -1 22.80 118.40 4 18 302
1919 WP MM 12:00:00 NR 23.15 117.85 70 0 __________P___ -1 23.15 117.85 4 19 309
1919 WP MM 15:00:00 NR 23.79 117.09 0 0 __________P___ -1 23.79 117.09 4 19 316
1919 WP MM 18:00:00 NR 24.53 116.39 0 0 __________P___ -1 24.53 116.39 4 20 321
1919 WP MM 21:00:00 NR 25.33 115.72 0 0 __________P___ -1 25.33 115.72 4 20 323
1919 WP MM 22:00:00 NR 25.60 115.50 0 __________O___ -1 25.60 115.50 4 20 323